Timmins/Victor M. Power
CYTS : now visible

Airfield :











YOU CAN JOIN US ON...

 
LOGIN :

Register | Disclaimer

   EN    FR    IT 

 









Legend :    VFR   Marginal VFR   IFR   Intensive IFR   Very Intensive IFR
Visi :
Ceiling :
>= 8 km
>= 3000ft
5 to 8 km
1000 to 3000 ft
1500m to 5 km
500 to 1000 ft
800 to 1500m
200 to 500 ft
< 800m
< 200 ft
Symbols :   Thunderstorms  Fog  Heavy snow  Heavy precipitations  Wind > 20 kt






- Airport Elevation : 967 ft
- IATA code : YTS


CYTS - Timmins/Victor M. Power

CURRENT METAR :
  • 042000Z 04005KT 330V060 15SM BKN040 BKN065 BKN085 17/08 A3001 RMK SC5SC1AC1 SLP173 DENSITY ALT 1400FT

EXPIRED METARs :
  • 041900Z VRB02KT 15SM BKN040 BKN080 17/07 A3003 RMK SC6AC1 SLP179 DENSITY ALT 1300FT
  • 041800Z 03004KT 350V090 15SM SCT030 BKN040 BKN110 16/07 A3005 RMK SC3SC2AC1 SLP183 DENSITY ALT 1200FT

TAF TAF CYTS
Valid from the 04 at 20:00 until the 05 at 08:00 UTC


041938Z 0420/0508 VRB03KT P6SM SCT030 BKN100
TEMPO 0420/0506 P6SM -SHRA BKN030 OVC100
BECMG 0420/0422 36008KT
FM050600 32005KT P6SM -SHRA SCT005 BKN030 RMK NXT FCST BY 050200Z
CZYZ FIR / North America



MET'MAP, your aeronautical weather chart ! - Copyright ORBIFLY December 2007 - Disclaimer

ORBIFLY MET'MAP TEAM :

Programming & Development : Alexandra Zaïnal
Concept & original design : Baudouin d'Aumeries
Assistance for programming : Marc-Olivier Méhu
Technical & hardware support : Manuel Goepfert

Contact : metmap@orbifly.com




SOURCES & CREDITS :

   NOAA       Earth
Advisory